Главная страница
METAR-TAF:

METAR-TAF

Аэропорты :

Куопио, Финляндия

широта: 63-01N, долгота: 027-48E, высота над уровнем моря: 98 м

Текущие метеонаблюдения

Эта сводка был подготовлена 20 минут назад, в 02:50 UTC
Ветер 6 Узел от южный
Температура 15°C
Влажность 82%
Давление 1018 hPa
Видимость 10 км и более
Нет облачности ниже 1500 м, и нет кучево-дождевой облачности

METAR: EFKU 170250Z AUTO 17006KT CAVOK 15/12 Q1018

Время: 06:10 (03:10 UTC)

Прогноз

Эта сводка был подготовлена 39 минут назад, в 02:31 UTC
Прогноз действительный с 17-го 03 UTC до 18-го 03 UTC
Ветер 8 Узел от южный
Видимость 10 км и более
Нет облачности ниже 1500 м, и нет кучево-дождевой облачности
временами
С 17-го 07 UTC до 17-го 15 UTC
Ветер 10 Узел от южный с порывами до 22 Узел

TAF: EFKU 170231Z 1703/1803 19008KT CAVOK TEMPO 1707/1715 19010G22KT

Метеонаблюдения и прогнозы для более 4000 аэропортов (сводки METAR и TAF).

Имеющиеся станции представлены на карте желтыми и красными точками.

Чтобы увидеть название станции, наведите на нее мышь.

Затем щелкните, чтобы увидеть метеонаблюдения и метеопрогнозы.

Управление картой: чтобы увеличить масштаб, щелкните зеленые кнопки с черным крестиком; чтобы уменьшить масштаб, щелкните зеленую кнопку с тире; для просмотра соседних карт щелкайте зеленые стрелки.


METAR-TAF: